sensor_id;sensor_type;location;lat;lon;timestamp;pressure;altitude;pressure_sealevel;temperature;humidity
56040;BME280;43937;41.366;2.072;2024-02-23T00:01:05;99650.84;;;15.87;87.34
56040;BME280;43937;41.366;2.072;2024-02-23T00:03:31;99635.69;;;15.85;86.45
56040;BME280;43937;41.366;2.072;2024-02-23T00:05:58;99593.09;;;15.57;85.48
56040;BME280;43937;41.366;2.072;2024-02-23T00:08:23;99632.72;;;15.68;86.13
56040;BME280;43937;41.366;2.072;2024-02-23T00:10:49;99630.69;;;15.56;85.39
56040;BME280;43937;41.366;2.072;2024-02-23T00:13:15;99657.38;;;15.43;85.13
56040;BME280;43937;41.366;2.072;2024-02-23T00:15:40;99651.50;;;15.39;85.00
56040;BME280;43937;41.366;2.072;2024-02-23T00:18:06;99671.50;;;15.46;82.80
56040;BME280;43937;41.366;2.072;2024-02-23T00:20:32;99664.31;;;15.20;83.65
56040;BME280;43937;41.366;2.072;2024-02-23T00:22:57;99632.41;;;15.07;82.68
56040;BME280;43937;41.366;2.072;2024-02-23T00:25:22;99643.75;;;15.11;82.77
56040;BME280;43937;41.366;2.072;2024-02-23T00:27:54;99619.34;;;14.78;83.47
56040;BME280;43937;41.366;2.072;2024-02-23T00:30:19;99599.66;;;14.49;83.92
56040;BME280;43937;41.366;2.072;2024-02-23T00:32:45;99622.34;;;14.95;83.54
56040;BME280;43937;41.366;2.072;2024-02-23T00:35:10;99628.72;;;14.88;85.27
56040;BME280;43937;41.366;2.072;2024-02-23T00:37:36;99606.66;;;14.83;84.29
56040;BME280;43937;41.366;2.072;2024-02-23T00:40:03;99611.03;;;14.59;86.70
56040;BME280;43937;41.366;2.072;2024-02-23T00:42:32;99607.78;;;14.69;86.52
56040;BME280;43937;41.366;2.072;2024-02-23T00:44:57;99561.94;;;14.58;86.37
56040;BME280;43937;41.366;2.072;2024-02-23T00:47:23;99644.56;;;15.11;85.49
56040;BME280;43937;41.366;2.072;2024-02-23T00:49:48;99642.72;;;14.80;87.15
56040;BME280;43937;41.366;2.072;2024-02-23T00:52:14;99624.75;;;14.46;87.80
56040;BME280;43937;41.366;2.072;2024-02-23T00:54:40;99614.03;;;14.51;88.14
56040;BME280;43937;41.366;2.072;2024-02-23T00:57:05;99615.97;;;14.37;88.59
56040;BME280;43937;41.366;2.072;2024-02-23T00:59:30;99655.56;;;14.35;90.63
56040;BME280;43937;41.366;2.072;2024-02-23T01:01:56;99592.81;;;14.33;89.49
56040;BME280;43937;41.366;2.072;2024-02-23T01:04:21;99626.50;;;14.40;89.75
56040;BME280;43937;41.366;2.072;2024-02-23T01:06:47;99614.31;;;14.30;89.46
56040;BME280;43937;41.366;2.072;2024-02-23T01:09:12;99623.75;;;14.34;90.10
56040;BME280;43937;41.366;2.072;2024-02-23T01:11:38;99629.84;;;13.91;92.73
56040;BME280;43937;41.366;2.072;2024-02-23T01:14:03;99631.97;;;14.34;90.48
56040;BME280;43937;41.366;2.072;2024-02-23T01:16:30;99655.91;;;14.58;89.57
56040;BME280;43937;41.366;2.072;2024-02-23T01:18:57;99659.53;;;14.84;88.01
56040;BME280;43937;41.366;2.072;2024-02-23T01:21:23;99669.34;;;14.66;88.85
56040;BME280;43937;41.366;2.072;2024-02-23T01:23:49;99646.88;;;14.51;88.97
56040;BME280;43937;41.366;2.072;2024-02-23T01:26:14;99678.84;;;14.96;87.11
56040;BME280;43937;41.366;2.072;2024-02-23T01:28:40;99675.75;;;14.85;87.27
56040;BME280;43937;41.366;2.072;2024-02-23T01:31:08;99695.72;;;15.24;86.75
56040;BME280;43937;41.366;2.072;2024-02-23T01:33:36;99716.41;;;15.45;85.77
56040;BME280;43937;41.366;2.072;2024-02-23T01:36:04;99724.25;;;15.67;84.53
56040;BME280;43937;41.366;2.072;2024-02-23T01:38:31;99719.41;;;15.69;84.28
56040;BME280;43937;41.366;2.072;2024-02-23T01:40:58;99706.28;;;15.21;85.70
56040;BME280;43937;41.366;2.072;2024-02-23T01:43:24;99679.50;;;15.23;85.63
56040;BME280;43937;41.366;2.072;2024-02-23T01:45:50;99679.88;;;15.26;84.84
56040;BME280;43937;41.366;2.072;2024-02-23T01:48:15;99653.94;;;15.29;85.20
56040;BME280;43937;41.366;2.072;2024-02-23T01:50:42;99643.16;;;15.27;86.17
56040;BME280;43937;41.366;2.072;2024-02-23T01:53:09;99619.28;;;15.09;87.71
56040;BME280;43937;41.366;2.072;2024-02-23T01:55:36;99594.16;;;15.12;86.27
56040;BME280;43937;41.366;2.072;2024-02-23T01:58:04;99588.47;;;15.14;86.37
56040;BME280;43937;41.366;2.072;2024-02-23T02:00:29;99560.13;;;14.77;86.67
56040;BME280;43937;41.366;2.072;2024-02-23T02:02:56;99564.88;;;14.88;86.16
56040;BME280;43937;41.366;2.072;2024-02-23T02:05:22;99594.53;;;14.66;88.10
56040;BME280;43937;41.366;2.072;2024-02-23T02:07:49;99565.38;;;14.78;87.32
56040;BME280;43937;41.366;2.072;2024-02-23T02:10:20;99585.31;;;14.92;87.07
56040;BME280;43937;41.366;2.072;2024-02-23T02:12:45;99591.75;;;14.73;87.69
56040;BME280;43937;41.366;2.072;2024-02-23T02:15:11;99594.81;;;14.89;87.36
56040;BME280;43937;41.366;2.072;2024-02-23T02:17:36;99594.56;;;14.91;86.54
56040;BME280;43937;41.366;2.072;2024-02-23T02:20:03;99596.81;;;15.26;84.39
56040;BME280;43937;41.366;2.072;2024-02-23T02:22:34;99613.94;;;15.40;84.38
56040;BME280;43937;41.366;2.072;2024-02-23T02:25:00;99639.13;;;15.55;82.87
56040;BME280;43937;41.366;2.072;2024-02-23T02:27:26;99647.81;;;15.77;82.39
56040;BME280;43937;41.366;2.072;2024-02-23T02:29:51;99636.22;;;15.93;81.52
56040;BME280;43937;41.366;2.072;2024-02-23T02:32:17;99605.81;;;15.95;81.02
56040;BME280;43937;41.366;2.072;2024-02-23T02:34:42;99604.34;;;16.11;79.76
56040;BME280;43937;41.366;2.072;2024-02-23T02:37:08;99618.63;;;16.01;79.08
56040;BME280;43937;41.366;2.072;2024-02-23T02:39:33;99610.81;;;16.16;79.08
56040;BME280;43937;41.366;2.072;2024-02-23T02:41:59;99620.25;;;16.20;78.51
56040;BME280;43937;41.366;2.072;2024-02-23T02:44:25;99599.47;;;15.94;79.70
56040;BME280;43937;41.366;2.072;2024-02-23T02:46:51;99592.66;;;15.60;81.26
56040;BME280;43937;41.366;2.072;2024-02-23T02:49:17;99578.31;;;15.58;82.02
56040;BME280;43937;41.366;2.072;2024-02-23T02:51:43;99588.16;;;15.47;83.19
56040;BME280;43937;41.366;2.072;2024-02-23T02:54:08;99589.19;;;15.71;81.46
56040;BME280;43937;41.366;2.072;2024-02-23T02:56:34;99596.41;;;16.02;81.33
56040;BME280;43937;41.366;2.072;2024-02-23T02:58:59;99586.47;;;16.20;80.30
56040;BME280;43937;41.366;2.072;2024-02-23T03:01:25;99586.47;;;16.20;79.92
56040;BME280;43937;41.366;2.072;2024-02-23T03:03:50;99585.16;;;15.92;82.10
56040;BME280;43937;41.366;2.072;2024-02-23T03:06:15;99577.75;;;15.74;82.14
56040;BME280;43937;41.366;2.072;2024-02-23T03:08:44;99587.53;;;15.70;82.51
56040;BME280;43937;41.366;2.072;2024-02-23T03:11:09;99578.25;;;15.46;82.94
56040;BME280;43937;41.366;2.072;2024-02-23T03:13:35;99591.09;;;15.46;82.52
56040;BME280;43937;41.366;2.072;2024-02-23T03:16:00;99563.56;;;15.16;83.54
56040;BME280;43937;41.366;2.072;2024-02-23T03:18:26;99594.81;;;15.33;84.51
56040;BME280;43937;41.366;2.072;2024-02-23T03:20:53;99594.53;;;15.41;83.68
56040;BME280;43937;41.366;2.072;2024-02-23T03:23:18;99582.44;;;15.49;82.52
56040;BME280;43937;41.366;2.072;2024-02-23T03:25:44;99565.41;;;15.22;84.77
56040;BME280;43937;41.366;2.072;2024-02-23T03:28:09;99568.22;;;15.15;84.65
56040;BME280;43937;41.366;2.072;2024-02-23T03:30:34;99574.97;;;15.12;81.62
56040;BME280;43937;41.366;2.072;2024-02-23T03:33:00;99580.66;;;14.68;67.82
56040;BME280;43937;41.366;2.072;2024-02-23T03:35:25;99605.59;;;14.53;62.81
56040;BME280;43937;41.366;2.072;2024-02-23T03:37:51;99598.63;;;14.12;58.56
56040;BME280;43937;41.366;2.072;2024-02-23T03:40:16;99592.16;;;14.00;59.64
56040;BME280;43937;41.366;2.072;2024-02-23T03:42:44;99566.19;;;14.15;58.34
56040;BME280;43937;41.366;2.072;2024-02-23T03:45:09;99566.06;;;13.97;58.62
56040;BME280;43937;41.366;2.072;2024-02-23T03:47:34;99577.84;;;14.04;56.69
56040;BME280;43937;41.366;2.072;2024-02-23T03:50:00;99576.47;;;13.75;56.54
56040;BME280;43937;41.366;2.072;2024-02-23T03:52:25;99588.00;;;13.84;56.30
56040;BME280;43937;41.366;2.072;2024-02-23T03:54:51;99590.63;;;13.59;56.44
56040;BME280;43937;41.366;2.072;2024-02-23T03:57:17;99589.19;;;13.29;55.91
56040;BME280;43937;41.366;2.072;2024-02-23T03:59:54;99577.63;;;13.27;55.61
56040;BME280;43937;41.366;2.072;2024-02-23T04:02:19;99586.25;;;13.31;53.53
56040;BME280;43937;41.366;2.072;2024-02-23T04:04:45;99556.00;;;12.99;53.25
56040;BME280;43937;41.366;2.072;2024-02-23T04:07:11;99561.25;;;13.07;52.99
56040;BME280;43937;41.366;2.072;2024-02-23T04:09:36;99570.91;;;13.03;52.24
56040;BME280;43937;41.366;2.072;2024-02-23T04:12:02;99574.25;;;13.12;51.78
56040;BME280;43937;41.366;2.072;2024-02-23T04:14:28;99587.09;;;13.25;52.20
56040;BME280;43937;41.366;2.072;2024-02-23T04:16:53;99569.44;;;13.07;52.35
56040;BME280;43937;41.366;2.072;2024-02-23T04:19:19;99575.97;;;12.87;52.12
56040;BME280;43937;41.366;2.072;2024-02-23T04:21:44;99591.06;;;12.76;51.98
56040;BME280;43937;41.366;2.072;2024-02-23T04:24:10;99594.03;;;13.07;52.08
56040;BME280;43937;41.366;2.072;2024-02-23T04:26:35;99588.56;;;12.88;51.51
56040;BME280;43937;41.366;2.072;2024-02-23T04:29:01;99595.69;;;12.75;51.81
56040;BME280;43937;41.366;2.072;2024-02-23T04:31:26;99591.31;;;12.74;52.11
56040;BME280;43937;41.366;2.072;2024-02-23T04:33:52;99581.81;;;12.57;52.19
56040;BME280;43937;41.366;2.072;2024-02-23T04:36:20;99587.06;;;12.52;52.74
56040;BME280;43937;41.366;2.072;2024-02-23T04:38:48;99613.94;;;12.55;52.19
56040;BME280;43937;41.366;2.072;2024-02-23T04:41:14;99591.78;;;12.10;52.28
56040;BME280;43937;41.366;2.072;2024-02-23T04:43:39;99610.28;;;12.14;52.15
56040;BME280;43937;41.366;2.072;2024-02-23T04:46:05;99625.66;;;12.35;51.30
56040;BME280;43937;41.366;2.072;2024-02-23T04:48:30;99615.97;;;12.20;52.43
56040;BME280;43937;41.366;2.072;2024-02-23T04:50:57;99626.09;;;12.39;51.86
56040;BME280;43937;41.366;2.072;2024-02-23T04:53:22;99606.56;;;12.35;52.04
56040;BME280;43937;41.366;2.072;2024-02-23T04:55:47;99593.94;;;12.28;51.80
56040;BME280;43937;41.366;2.072;2024-02-23T04:58:13;99617.66;;;12.27;51.37
56040;BME280;43937;41.366;2.072;2024-02-23T05:00:39;99625.06;;;12.47;51.56
56040;BME280;43937;41.366;2.072;2024-02-23T05:03:05;99621.50;;;12.53;50.76
56040;BME280;43937;41.366;2.072;2024-02-23T05:05:31;99598.63;;;12.54;50.39
56040;BME280;43937;41.366;2.072;2024-02-23T05:07:57;99631.41;;;12.74;50.28
56040;BME280;43937;41.366;2.072;2024-02-23T05:10:23;99628.00;;;12.52;50.13
56040;BME280;43937;41.366;2.072;2024-02-23T05:12:49;99609.53;;;12.47;49.70
56040;BME280;43937;41.366;2.072;2024-02-23T05:15:14;99609.94;;;12.37;49.46
56040;BME280;43937;41.366;2.072;2024-02-23T05:17:40;99631.78;;;12.51;49.26
56040;BME280;43937;41.366;2.072;2024-02-23T05:20:06;99635.34;;;12.45;50.13
56040;BME280;43937;41.366;2.072;2024-02-23T05:22:33;99603.19;;;12.27;49.79
56040;BME280;43937;41.366;2.072;2024-02-23T05:24:58;99641.97;;;12.22;49.58
56040;BME280;43937;41.366;2.072;2024-02-23T05:27:23;99630.03;;;12.23;49.59
56040;BME280;43937;41.366;2.072;2024-02-23T05:29:49;99611.34;;;12.20;50.18
56040;BME280;43937;41.366;2.072;2024-02-23T05:32:14;99625.84;;;12.34;49.99
56040;BME280;43937;41.366;2.072;2024-02-23T05:34:40;99642.47;;;12.52;49.91
56040;BME280;43937;41.366;2.072;2024-02-23T05:37:06;99630.06;;;12.36;49.90
56040;BME280;43937;41.366;2.072;2024-02-23T05:39:31;99644.59;;;12.57;49.17
56040;BME280;43937;41.366;2.072;2024-02-23T05:41:57;99647.34;;;12.57;49.47
56040;BME280;43937;41.366;2.072;2024-02-23T05:44:24;99669.75;;;12.46;49.02
56040;BME280;43937;41.366;2.072;2024-02-23T05:46:50;99673.97;;;12.42;49.84
56040;BME280;43937;41.366;2.072;2024-02-23T05:49:16;99677.50;;;12.29;50.20
56040;BME280;43937;41.366;2.072;2024-02-23T05:51:41;99676.59;;;12.22;50.10
56040;BME280;43937;41.366;2.072;2024-02-23T05:54:07;99680.13;;;12.09;49.64
56040;BME280;43937;41.366;2.072;2024-02-23T05:56:32;99692.50;;;12.11;49.67
56040;BME280;43937;41.366;2.072;2024-02-23T05:58:58;99686.50;;;12.29;49.21
56040;BME280;43937;41.366;2.072;2024-02-23T06:01:24;99701.78;;;12.17;49.54
56040;BME280;43937;41.366;2.072;2024-02-23T06:03:50;99710.91;;;12.37;49.57
56040;BME280;43937;41.366;2.072;2024-02-23T06:06:15;99695.94;;;12.27;49.22
56040;BME280;43937;41.366;2.072;2024-02-23T06:08:40;99701.91;;;12.44;49.71
56040;BME280;43937;41.366;2.072;2024-02-23T06:11:06;99727.34;;;12.16;49.12
56040;BME280;43937;41.366;2.072;2024-02-23T06:13:32;99719.81;;;12.18;50.50
56040;BME280;43937;41.366;2.072;2024-02-23T06:15:58;99732.69;;;12.31;49.81
56040;BME280;43937;41.366;2.072;2024-02-23T06:18:24;99727.41;;;12.23;50.03
56040;BME280;43937;41.366;2.072;2024-02-23T06:20:49;99724.41;;;12.11;49.77
56040;BME280;43937;41.366;2.072;2024-02-23T06:23:16;99722.66;;;12.38;49.79
56040;BME280;43937;41.366;2.072;2024-02-23T06:25:41;99695.94;;;12.27;50.37
56040;BME280;43937;41.366;2.072;2024-02-23T06:28:07;99736.50;;;12.43;50.71
56040;BME280;43937;41.366;2.072;2024-02-23T06:30:32;99723.69;;;12.37;50.73
56040;BME280;43937;41.366;2.072;2024-02-23T06:32:57;99738.00;;;12.46;51.10
56040;BME280;43937;41.366;2.072;2024-02-23T06:35:23;99740.75;;;12.04;51.92
56040;BME280;43937;41.366;2.072;2024-02-23T06:37:48;99728.91;;;11.90;51.19
56040;BME280;43937;41.366;2.072;2024-02-23T06:40:14;99756.56;;;11.87;51.30
56040;BME280;43937;41.366;2.072;2024-02-23T06:42:39;99740.53;;;11.78;51.73
56040;BME280;43937;41.366;2.072;2024-02-23T06:45:05;99727.53;;;11.52;52.31
56040;BME280;43937;41.366;2.072;2024-02-23T06:47:31;99757.63;;;11.86;51.91
56040;BME280;43937;41.366;2.072;2024-02-23T06:49:56;99774.72;;;12.02;52.76
56040;BME280;43937;41.366;2.072;2024-02-23T06:52:21;99759.59;;;11.99;51.99
56040;BME280;43937;41.366;2.072;2024-02-23T06:54:48;99768.03;;;12.04;51.37
56040;BME280;43937;41.366;2.072;2024-02-23T06:57:14;99774.59;;;12.17;51.81
56040;BME280;43937;41.366;2.072;2024-02-23T06:59:39;99797.38;;;12.37;51.05
56040;BME280;43937;41.366;2.072;2024-02-23T07:02:05;99801.09;;;12.29;50.68
56040;BME280;43937;41.366;2.072;2024-02-23T07:04:31;99802.41;;;12.40;51.18
56040;BME280;43937;41.366;2.072;2024-02-23T07:06:57;99796.63;;;12.50;50.58
56040;BME280;43937;41.366;2.072;2024-02-23T07:09:22;99823.13;;;12.63;50.01
56040;BME280;43937;41.366;2.072;2024-02-23T07:11:48;99823.91;;;12.50;49.76
56040;BME280;43937;41.366;2.072;2024-02-23T07:14:13;99819.44;;;12.42;49.32
56040;BME280;43937;41.366;2.072;2024-02-23T07:16:40;99819.59;;;12.69;49.65
56040;BME280;43937;41.366;2.072;2024-02-23T07:19:06;99815.63;;;12.78;48.52
56040;BME280;43937;41.366;2.072;2024-02-23T07:21:32;99838.19;;;13.00;48.17
56040;BME280;43937;41.366;2.072;2024-02-23T07:23:58;99841.06;;;12.85;48.79
56040;BME280;43937;41.366;2.072;2024-02-23T07:26:23;99829.28;;;12.78;47.81
56040;BME280;43937;41.366;2.072;2024-02-23T07:28:49;99829.75;;;12.88;47.78
56040;BME280;43937;41.366;2.072;2024-02-23T07:31:14;99841.16;;;13.05;48.00
56040;BME280;43937;41.366;2.072;2024-02-23T07:33:42;99847.94;;;13.22;47.62
56040;BME280;43937;41.366;2.072;2024-02-23T07:36:07;99839.28;;;13.19;46.75
56040;BME280;43937;41.366;2.072;2024-02-23T07:38:34;99862.63;;;13.21;46.43
56040;BME280;43937;41.366;2.072;2024-02-23T07:40:59;99868.88;;;13.02;46.35
56040;BME280;43937;41.366;2.072;2024-02-23T07:43:25;99868.06;;;13.08;46.06
56040;BME280;43937;41.366;2.072;2024-02-23T07:45:51;99852.91;;;12.99;45.91
56040;BME280;43937;41.366;2.072;2024-02-23T07:48:17;99868.88;;;12.95;46.09
56040;BME280;43937;41.366;2.072;2024-02-23T07:50:42;99858.38;;;12.99;45.88
56040;BME280;43937;41.366;2.072;2024-02-23T07:53:07;99870.09;;;13.41;45.68
56040;BME280;43937;41.366;2.072;2024-02-23T07:55:33;99856.22;;;12.94;45.91
56040;BME280;43937;41.366;2.072;2024-02-23T07:57:58;99865.56;;;13.13;45.63
56040;BME280;43937;41.366;2.072;2024-02-23T08:00:27;99869.97;;;13.07;46.23
56040;BME280;43937;41.366;2.072;2024-02-23T08:02:53;99875.34;;;14.82;43.24
56040;BME280;43937;41.366;2.072;2024-02-23T08:05:22;99890.28;;;18.81;36.50
56040;BME280;43937;41.366;2.072;2024-02-23T08:07:47;99871.63;;;19.80;32.82
56040;BME280;43937;41.366;2.072;2024-02-23T08:10:13;99900.91;;;22.20;30.77
56040;BME280;43937;41.366;2.072;2024-02-23T08:12:38;99886.56;;;24.01;29.38
56040;BME280;43937;41.366;2.072;2024-02-23T08:15:05;99899.50;;;25.28;28.96
56040;BME280;43937;41.366;2.072;2024-02-23T08:17:31;99898.81;;;26.41;28.04
56040;BME280;43937;41.366;2.072;2024-02-23T08:19:56;99907.56;;;22.56;32.20
56040;BME280;43937;41.366;2.072;2024-02-23T08:22:21;99897.00;;;20.45;35.03
56040;BME280;43937;41.366;2.072;2024-02-23T08:24:48;99894.91;;;18.45;37.76
56040;BME280;43937;41.366;2.072;2024-02-23T08:27:14;99884.94;;;17.18;38.56
56040;BME280;43937;41.366;2.072;2024-02-23T08:29:39;99884.81;;;16.51;41.36
56040;BME280;43937;41.366;2.072;2024-02-23T08:32:05;99905.31;;;16.74;42.32
56040;BME280;43937;41.366;2.072;2024-02-23T08:34:31;99901.44;;;19.66;38.40
56040;BME280;43937;41.366;2.072;2024-02-23T08:36:56;99903.66;;;23.52;32.35
56040;BME280;43937;41.366;2.072;2024-02-23T08:39:22;99917.44;;;24.97;30.40
56040;BME280;43937;41.366;2.072;2024-02-23T08:41:48;99923.22;;;25.86;27.87
56040;BME280;43937;41.366;2.072;2024-02-23T08:44:13;99865.91;;;26.72;26.46
56040;BME280;43937;41.366;2.072;2024-02-23T08:46:39;99896.84;;;24.11;27.98
56040;BME280;43937;41.366;2.072;2024-02-23T08:49:05;99902.47;;;23.32;28.14
56040;BME280;43937;41.366;2.072;2024-02-23T08:51:30;99908.09;;;25.42;26.31
56040;BME280;43937;41.366;2.072;2024-02-23T08:53:56;99918.28;;;25.67;24.76
56040;BME280;43937;41.366;2.072;2024-02-23T08:56:22;99894.34;;;25.61;24.85
56040;BME280;43937;41.366;2.072;2024-02-23T08:58:48;99913.50;;;25.13;25.21
56040;BME280;43937;41.366;2.072;2024-02-23T09:01:13;99904.94;;;23.19;27.04
56040;BME280;43937;41.366;2.072;2024-02-23T09:03:38;99916.91;;;22.87;27.64
56040;BME280;43937;41.366;2.072;2024-02-23T09:06:04;99908.31;;;22.46;28.52
56040;BME280;43937;41.366;2.072;2024-02-23T09:08:29;99908.09;;;21.39;29.82
56040;BME280;43937;41.366;2.072;2024-02-23T09:10:55;99891.66;;;20.04;31.56
56040;BME280;43937;41.366;2.072;2024-02-23T09:13:20;99922.19;;;19.69;32.54
56040;BME280;43937;41.366;2.072;2024-02-23T09:15:46;99922.47;;;19.15;33.25
56040;BME280;43937;41.366;2.072;2024-02-23T09:18:11;99892.03;;;17.74;35.50
56040;BME280;43937;41.366;2.072;2024-02-23T09:20:37;99907.50;;;17.08;37.07
56040;BME280;43937;41.366;2.072;2024-02-23T09:23:02;99900.78;;;16.86;36.84
56040;BME280;43937;41.366;2.072;2024-02-23T09:25:28;99893.75;;;16.90;37.37
56040;BME280;43937;41.366;2.072;2024-02-23T09:27:58;99905.44;;;17.22;36.97
56040;BME280;43937;41.366;2.072;2024-02-23T09:30:24;99892.78;;;17.33;36.90
56040;BME280;43937;41.366;2.072;2024-02-23T09:32:49;99905.69;;;17.51;37.39
56040;BME280;43937;41.366;2.072;2024-02-23T09:35:15;99880.00;;;17.08;36.84
56040;BME280;43937;41.366;2.072;2024-02-23T09:37:40;99835.75;;;16.80;36.99
56040;BME280;43937;41.366;2.072;2024-02-23T09:40:07;99861.94;;;17.31;37.26
56040;BME280;43937;41.366;2.072;2024-02-23T09:42:33;99899.91;;;17.40;37.90
56040;BME280;43937;41.366;2.072;2024-02-23T09:45:00;99884.22;;;17.41;37.60
56040;BME280;43937;41.366;2.072;2024-02-23T09:47:27;99907.50;;;17.08;39.03
56040;BME280;43937;41.366;2.072;2024-02-23T09:49:53;99885.13;;;17.05;39.79
56040;BME280;43937;41.366;2.072;2024-02-23T09:52:20;99900.44;;;17.49;39.56
56040;BME280;43937;41.366;2.072;2024-02-23T09:54:46;99865.19;;;16.91;43.61
56040;BME280;43937;41.366;2.072;2024-02-23T09:57:12;99893.59;;;17.52;44.07
56040;BME280;43937;41.366;2.072;2024-02-23T09:59:39;99897.53;;;17.74;44.12
56040;BME280;43937;41.366;2.072;2024-02-23T10:02:10;99883.88;;;17.37;45.96
56040;BME280;43937;41.366;2.072;2024-02-23T10:04:39;99885.34;;;16.85;47.65
56040;BME280;43937;41.366;2.072;2024-02-23T10:07:06;99819.88;;;15.95;49.01
56040;BME280;43937;41.366;2.072;2024-02-23T10:09:32;99856.94;;;16.91;48.93
56040;BME280;43937;41.366;2.072;2024-02-23T10:11:57;99832.69;;;17.18;47.67
56040;BME280;43937;41.366;2.072;2024-02-23T10:14:23;99786.59;;;17.02;47.03
56040;BME280;43937;41.366;2.072;2024-02-23T10:16:51;99878.94;;;18.00;46.52
56040;BME280;43937;41.366;2.072;2024-02-23T10:19:22;99895.25;;;17.71;47.32
56040;BME280;43937;41.366;2.072;2024-02-23T10:21:47;99895.25;;;18.13;46.80
56040;BME280;43937;41.366;2.072;2024-02-23T10:24:17;99872.59;;;17.09;45.73
56040;BME280;43937;41.366;2.072;2024-02-23T10:26:43;99894.44;;;16.85;40.03
56040;BME280;43937;41.366;2.072;2024-02-23T10:29:10;99837.97;;;17.20;42.30
56040;BME280;43937;41.366;2.072;2024-02-23T10:31:36;99783.69;;;17.57;42.54
56040;BME280;43937;41.366;2.072;2024-02-23T10:34:09;99866.63;;;18.14;39.15
56040;BME280;43937;41.366;2.072;2024-02-23T10:36:41;99823.78;;;17.65;42.07
56040;BME280;43937;41.366;2.072;2024-02-23T10:39:08;99869.25;;;18.09;44.70
56040;BME280;43937;41.366;2.072;2024-02-23T10:41:35;99853.22;;;18.65;43.12
56040;BME280;43937;41.366;2.072;2024-02-23T10:44:03;99844.97;;;18.65;45.11
56040;BME280;43937;41.366;2.072;2024-02-23T10:46:31;99779.19;;;18.45;44.56
56040;BME280;43937;41.366;2.072;2024-02-23T10:48:58;99866.34;;;19.21;42.84
56040;BME280;43937;41.366;2.072;2024-02-23T10:51:27;99811.44;;;19.08;41.67
56040;BME280;43937;41.366;2.072;2024-02-23T10:53:52;99841.31;;;19.40;40.90
56040;BME280;43937;41.366;2.072;2024-02-23T10:56:18;99869.16;;;18.98;41.02
56040;BME280;43937;41.366;2.072;2024-02-23T10:58:45;99879.34;;;19.38;40.05
56040;BME280;43937;41.366;2.072;2024-02-23T11:01:11;99867.19;;;19.10;39.98
56040;BME280;43937;41.366;2.072;2024-02-23T11:03:42;99861.03;;;19.20;41.17
56040;BME280;43937;41.366;2.072;2024-02-23T11:06:08;99847.75;;;19.17;53.57
56040;BME280;43937;41.366;2.072;2024-02-23T11:08:34;99874.88;;;18.96;40.36
56040;BME280;43937;41.366;2.072;2024-02-23T11:11:08;99883.78;;;18.51;41.46
56040;BME280;43937;41.366;2.072;2024-02-23T11:13:36;99841.16;;;18.19;38.56
56040;BME280;43937;41.366;2.072;2024-02-23T11:16:05;99866.59;;;17.91;33.33
56040;BME280;43937;41.366;2.072;2024-02-23T11:18:34;99862.56;;;18.05;31.61
56040;BME280;43937;41.366;2.072;2024-02-23T11:21:01;99861.22;;;17.96;31.23
56040;BME280;43937;41.366;2.072;2024-02-23T11:23:39;99847.22;;;18.09;32.02
56040;BME280;43937;41.366;2.072;2024-02-23T11:26:12;99855.84;;;18.24;32.33
56040;BME280;43937;41.366;2.072;2024-02-23T11:28:48;99859.75;;;17.51;31.28
56040;BME280;43937;41.366;2.072;2024-02-23T11:31:15;99833.88;;;17.40;31.74
56040;BME280;43937;41.366;2.072;2024-02-23T11:33:51;99866.69;;;17.54;31.60
56040;BME280;43937;41.366;2.072;2024-02-23T11:36:28;99848.69;;;17.39;31.85
56040;BME280;43937;41.366;2.072;2024-02-23T11:38:54;99844.47;;;17.25;31.74
56040;BME280;43937;41.366;2.072;2024-02-23T11:41:22;99856.69;;;17.11;32.44
56040;BME280;43937;41.366;2.072;2024-02-23T11:43:49;99842.31;;;17.27;31.91
56040;BME280;43937;41.366;2.072;2024-02-23T11:46:18;99858.97;;;17.32;31.80
56040;BME280;43937;41.366;2.072;2024-02-23T11:48:45;99828.06;;;17.60;32.03
56040;BME280;43937;41.366;2.072;2024-02-23T11:51:15;99847.63;;;17.40;31.02
56040;BME280;43937;41.366;2.072;2024-02-23T11:53:41;99833.22;;;17.27;31.25
56040;BME280;43937;41.366;2.072;2024-02-23T11:56:07;99835.13;;;17.26;30.84
56040;BME280;43937;41.366;2.072;2024-02-23T11:58:33;99828.63;;;17.51;30.72
56040;BME280;43937;41.366;2.072;2024-02-23T12:01:02;99825.09;;;17.02;31.59
56040;BME280;43937;41.366;2.072;2024-02-23T12:03:29;99827.56;;;17.94;31.17
56040;BME280;43937;41.366;2.072;2024-02-23T12:05:57;99827.22;;;17.90;31.16
56040;BME280;43937;41.366;2.072;2024-02-23T12:08:24;99817.16;;;17.54;30.89
56040;BME280;43937;41.366;2.072;2024-02-23T12:10:52;99828.66;;;17.93;32.00
56040;BME280;43937;41.366;2.072;2024-02-23T12:13:17;99827.22;;;18.02;31.40
56040;BME280;43937;41.366;2.072;2024-02-23T12:15:43;99820.16;;;17.52;31.35
56040;BME280;43937;41.366;2.072;2024-02-23T12:18:10;99810.00;;;17.53;30.92
56040;BME280;43937;41.366;2.072;2024-02-23T12:20:36;99815.94;;;17.38;30.83
56040;BME280;43937;41.366;2.072;2024-02-23T12:23:01;99804.69;;;17.39;29.98
56040;BME280;43937;41.366;2.072;2024-02-23T12:25:27;99813.53;;;17.11;30.43
56040;BME280;43937;41.366;2.072;2024-02-23T12:27:56;99807.63;;;17.26;30.59
56040;BME280;43937;41.366;2.072;2024-02-23T12:30:25;99781.47;;;17.05;30.82
56040;BME280;43937;41.366;2.072;2024-02-23T12:32:52;99784.94;;;17.01;30.52
56040;BME280;43937;41.366;2.072;2024-02-23T12:35:27;99792.16;;;17.85;29.73
56040;BME280;43937;41.366;2.072;2024-02-23T12:37:53;99797.94;;;17.66;29.63
56040;BME280;43937;41.366;2.072;2024-02-23T12:40:18;99797.81;;;17.72;29.92
56040;BME280;43937;41.366;2.072;2024-02-23T12:42:44;99793.69;;;17.93;29.31
56040;BME280;43937;41.366;2.072;2024-02-23T12:45:11;99785.09;;;18.25;28.99
56040;BME280;43937;41.366;2.072;2024-02-23T12:47:38;99773.81;;;17.91;28.84
56040;BME280;43937;41.366;2.072;2024-02-23T12:50:04;99784.25;;;17.89;29.19
56040;BME280;43937;41.366;2.072;2024-02-23T12:52:31;99777.97;;;17.70;28.61
56040;BME280;43937;41.366;2.072;2024-02-23T12:54:56;99783.69;;;17.57;29.03